Time;durP1;ratioP1;P1;durP2;ratioP2;P2;SDS_P1;SDS_P2;PMS_P1;PMS_P2;Temp;Humidity;BMP_temperature;BMP_pressure;BME280_temperature;BME280_humidity;BME280_pressure;Samples;Min_cycle;Max_cycle;Signal;HPM_P1;HPM_P2
2022/03/10 00:01:50;;;;;;;0.00;0.00;;;11.90;99.90;;;;;;5042797;28;20056;-62
2022/03/10 00:04:16;;;;;;;0.00;0.00;;;11.90;99.90;;;;;;5045055;28;20048;-62
2022/03/10 00:06:42;;;;;;;0.00;0.00;;;12.00;99.90;;;;;;5043232;28;20021;-61
2022/03/10 00:09:07;;;;;;;0.00;0.00;;;12.00;99.90;;;;;;5043940;28;20014;-61
2022/03/10 00:11:33;;;;;;;0.00;0.00;;;12.10;99.90;;;;;;5035293;28;20022;-63
2022/03/10 00:13:59;;;;;;;0.00;0.00;;;12.10;99.90;;;;;;5046035;28;20027;-64
2022/03/10 00:16:25;;;;;;;0.00;0.00;;;12.00;99.90;;;;;;5033978;28;20042;-61
2022/03/10 00:18:51;;;;;;;0.00;0.00;;;12.00;99.90;;;;;;5029224;28;20014;-62
2022/03/10 00:21:17;;;;;;;0.00;0.00;;;12.10;99.90;;;;;;5048943;28;20037;-67
2022/03/10 00:23:42;;;;;;;0.00;0.00;;;12.10;99.90;;;;;;5042657;28;20056;-62
2022/03/10 00:26:08;;;;;;;0.00;0.00;;;12.20;99.90;;;;;;5044734;28;20601;-63
2022/03/10 00:28:34;;;;;;;0.00;0.00;;;12.10;99.90;;;;;;5047325;28;20025;-62
2022/03/10 00:31:00;;;;;;;0.00;0.00;;;12.00;99.90;;;;;;5022249;28;20025;-62
2022/03/10 00:33:26;;;;;;;0.00;0.00;;;12.00;99.90;;;;;;5051515;28;20045;-62
2022/03/10 00:35:51;;;;;;;0.00;0.00;;;12.00;99.90;;;;;;5068307;28;20028;-62
2022/03/10 00:38:18;;;;;;;0.00;0.00;;;12.00;99.90;;;;;;5065076;28;20005;-62
2022/03/10 00:40:45;;;;;;;0.00;0.00;;;12.00;99.90;;;;;;5055147;28;20083;-63
2022/03/10 00:43:14;;;;;;;0.00;0.00;;;12.10;99.90;;;;;;5058215;28;20032;-61
2022/03/10 00:45:40;;;;;;;0.00;0.00;;;12.20;99.90;;;;;;5055088;28;20036;-63
2022/03/10 00:48:07;;;;;;;0.00;0.00;;;12.20;99.90;;;;;;5061597;28;20045;-62
2022/03/10 00:50:33;;;;;;;0.00;0.00;;;12.30;99.90;;;;;;5057303;28;20094;-64
2022/03/10 00:53:02;;;;;;;0.00;0.00;;;12.20;99.90;;;;;;5057715;28;20033;-62
2022/03/10 00:55:27;;;;;;;0.00;0.00;;;12.10;99.90;;;;;;5055586;28;20037;-62
2022/03/10 00:57:53;;;;;;;0.00;0.00;;;12.10;99.90;;;;;;5064976;28;20029;-63
2022/03/10 01:00:19;;;;;;;0.00;0.00;;;12.10;99.90;;;;;;5062344;28;20028;-62
2022/03/10 01:02:45;;;;;;;0.00;0.00;;;12.20;99.90;;;;;;5062346;28;20028;-63
2022/03/10 01:05:11;;;;;;;0.00;0.00;;;12.10;99.90;;;;;;5057605;28;20030;-62
2022/03/10 01:07:37;;;;;;;0.00;0.00;;;12.00;99.90;;;;;;5059338;28;20082;-62
2022/03/10 01:10:05;;;;;;;0.00;0.00;;;12.00;99.90;;;;;;5059045;28;20490;-62
2022/03/10 01:12:31;;;;;;;0.00;0.00;;;12.00;99.90;;;;;;5066529;28;20087;-63
2022/03/10 01:14:57;;;;;;;0.00;0.00;;;12.00;99.90;;;;;;5062719;28;20213;-62
2022/03/10 01:17:23;;;;;;;;;;;12.10;99.90;;;;;;5065163;28;20484;-62
2022/03/10 01:19:49;;;;;;;0.00;0.00;;;12.10;99.90;;;;;;5053420;28;19916;-61
2022/03/10 01:22:16;;;;;;;0.00;0.00;;;12.10;99.90;;;;;;5064451;28;20422;-61
2022/03/10 01:24:42;;;;;;;0.00;0.00;;;12.20;99.90;;;;;;5065306;28;20497;-62
2022/03/10 01:27:09;;;;;;;0.00;0.00;;;12.10;99.90;;;;;;5063614;28;20077;-62
2022/03/10 01:29:34;;;;;;;0.00;0.00;;;12.20;99.90;;;;;;5063491;28;20088;-63
2022/03/10 01:32:00;;;;;;;0.00;0.00;;;12.10;99.90;;;;;;5054302;28;20036;-64
2022/03/10 01:34:26;;;;;;;0.00;0.00;;;12.10;99.90;;;;;;5046743;28;20057;-62
2022/03/10 01:36:52;;;;;;;0.00;0.00;;;12.20;99.90;;;;;;5048072;28;20040;-63
2022/03/10 01:39:18;;;;;;;0.00;0.00;;;12.10;99.90;;;;;;5049057;28;20026;-62
2022/03/10 01:41:44;;;;;;;0.00;0.00;;;12.10;99.90;;;;;;5042331;28;20103;-63
2022/03/10 01:44:11;;;;;;;0.00;0.00;;;12.10;99.90;;;;;;5044532;28;20030;-63
2022/03/10 01:46:37;;;;;;;0.00;0.00;;;12.10;99.90;;;;;;5050419;28;20072;-62
2022/03/10 01:49:04;;;;;;;0.00;0.00;;;12.00;99.90;;;;;;5028725;28;20030;-62
2022/03/10 01:51:31;;;;;;;0.00;0.00;;;12.00;99.90;;;;;;5050113;28;20029;-61
2022/03/10 01:53:57;;;;;;;0.00;0.00;;;12.00;99.90;;;;;;5032614;28;20025;-63
2022/03/10 01:56:24;;;;;;;0.00;0.00;;;11.90;99.90;;;;;;5028307;28;20036;-62
2022/03/10 01:58:51;;;;;;;0.00;0.00;;;11.90;99.90;;;;;;5049511;28;20018;-62
2022/03/10 02:01:18;;;;;;;0.00;0.00;;;11.90;99.90;;;;;;5050946;28;20483;-62
2022/03/10 02:03:44;;;;;;;0.00;0.00;;;11.90;99.90;;;;;;5050192;28;20025;-63
2022/03/10 02:06:11;;;;;;;0.00;0.00;;;11.90;99.90;;;;;;5050655;28;20085;-62
2022/03/10 02:11:24;;;;;;;0.00;0.00;;;11.80;99.90;;;;;;5046255;28;20060;-62
2022/03/10 02:13:50;;;;;;;;;;;11.90;99.90;;;;;;5053293;28;20271;-62
2022/03/10 02:19:01;;;;;;;0.00;0.00;;;11.90;99.90;;;;;;5052946;28;20032;-62
2022/03/10 02:21:27;;;;;;;0.00;0.00;;;11.90;99.90;;;;;;5048861;28;20030;-62
2022/03/10 02:23:53;;;;;;;0.00;0.00;;;12.00;99.90;;;;;;5050830;28;20037;-63
2022/03/10 02:26:19;;;;;;;0.00;0.00;;;11.90;99.90;;;;;;5052295;28;20033;-62
2022/03/10 02:28:48;;;;;;;0.00;0.00;;;11.90;99.90;;;;;;5052249;28;20017;-62
2022/03/10 02:31:14;;;;;;;0.00;0.00;;;12.00;99.90;;;;;;5052456;28;20034;-61
2022/03/10 02:33:40;;;;;;;0.00;0.00;;;12.00;99.90;;;;;;5051931;28;20060;-62
2022/03/10 02:36:06;;;;;;;0.00;0.00;;;11.90;99.90;;;;;;5051564;28;20034;-62
2022/03/10 02:38:32;;;;;;;0.00;0.00;;;11.90;99.90;;;;;;5053467;28;20092;-63
2022/03/10 02:40:58;;;;;;;;;;;11.90;99.90;;;;;;5046427;28;20053;-63
2022/03/10 02:43:24;;;;;;;0.00;0.00;;;11.90;99.90;;;;;;5047673;28;19916;-69
2022/03/10 02:45:50;;;;;;;0.00;0.00;;;11.90;99.90;;;;;;5052673;28;20033;-62
2022/03/10 02:48:17;;;;;;;0.00;0.00;;;11.80;99.90;;;;;;5051977;28;20060;-62
2022/03/10 02:50:44;;;;;;;0.00;0.00;;;11.80;99.90;;;;;;5050500;28;20055;-62
2022/03/10 02:53:11;;;;;;;0.00;0.00;;;11.70;99.90;;;;;;5052902;28;20090;-62
2022/03/10 02:55:37;;;;;;;0.00;0.00;;;11.70;99.90;;;;;;5049722;28;20084;-63
2022/03/10 02:58:04;;;;;;;0.00;0.00;;;11.80;99.90;;;;;;5052909;28;20034;-62
2022/03/10 03:00:29;;;;;;;0.00;0.00;;;11.80;99.90;;;;;;5044211;28;20056;-62
2022/03/10 03:02:55;;;;;;;0.00;0.00;;;11.80;99.90;;;;;;5051909;28;20099;-62
2022/03/10 03:05:21;;;;;;;0.00;0.00;;;11.80;99.90;;;;;;5051848;28;20045;-62
2022/03/10 03:07:51;;;;;;;0.00;0.00;;;11.80;99.90;;;;;;5049795;28;20033;-62
2022/03/10 03:10:17;;;;;;;0.00;0.00;;;11.80;99.90;;;;;;5046387;28;20501;-61
2022/03/10 03:12:44;;;;;;;;;;;11.70;99.90;;;;;;5050779;28;20025;-62
2022/03/10 03:15:09;;;;;;;0.00;0.00;;;11.70;99.90;;;;;;5041127;28;19913;-63
2022/03/10 03:17:35;;;;;;;0.00;0.00;;;11.70;99.90;;;;;;5047153;28;20061;-62
2022/03/10 03:20:01;;;;;;;0.00;0.00;;;11.60;99.90;;;;;;5041612;28;20053;-62
2022/03/10 03:22:26;;;;;;;0.00;0.00;;;11.60;99.90;;;;;;5050460;28;20037;-62
2022/03/10 03:24:52;;;;;;;0.00;0.00;;;11.60;99.90;;;;;;5051483;28;20029;-61
2022/03/10 03:27:18;;;;;;;0.00;0.00;;;11.70;99.90;;;;;;5046755;28;20047;-61
2022/03/10 03:29:44;;;;;;;0.00;0.00;;;11.50;99.90;;;;;;5049665;28;20086;-63
2022/03/10 03:32:09;;;;;;;0.00;0.00;;;11.50;99.90;;;;;;5034723;28;20030;-61
2022/03/10 03:34:35;;;;;;;0.00;0.00;;;11.50;99.90;;;;;;5044609;28;20049;-62
2022/03/10 03:37:01;;;;;;;0.00;0.00;;;11.40;99.90;;;;;;5051315;28;20029;-61
2022/03/10 03:39:27;;;;;;;0.00;0.00;;;11.40;99.90;;;;;;5047557;28;20044;-62
2022/03/10 03:41:52;;;;;;;0.00;0.00;;;11.40;99.90;;;;;;5048235;28;20034;-62
2022/03/10 03:44:18;;;;;;;0.00;0.00;;;11.30;99.90;;;;;;5050806;28;20033;-63
2022/03/10 03:46:44;;;;;;;0.00;0.00;;;11.30;99.90;;;;;;5050789;28;20037;-63
2022/03/10 03:49:10;;;;;;;0.00;0.00;;;11.20;99.90;;;;;;5031457;28;20032;-65
2022/03/10 03:51:37;;;;;;;0.00;0.00;;;11.10;99.90;;;;;;5051199;28;20100;-62
2022/03/10 03:54:03;;;;;;;0.00;0.00;;;11.10;99.90;;;;;;5046900;28;20032;-62
2022/03/10 03:56:28;;;;;;;0.00;0.00;;;11.10;99.90;;;;;;5050217;28;20034;-62
2022/03/10 03:58:54;;;;;;;0.00;0.00;;;11.20;99.90;;;;;;5051209;28;20066;-62
2022/03/10 04:01:20;;;;;;;0.00;0.00;;;11.20;99.90;;;;;;5048928;28;20042;-62
2022/03/10 04:03:46;;;;;;;0.00;0.00;;;11.20;99.90;;;;;;5030868;28;20025;-62
2022/03/10 04:06:11;;;;;;;0.00;0.00;;;11.20;99.90;;;;;;5049628;28;20514;-62
2022/03/10 04:08:37;;;;;;;0.00;0.00;;;11.20;99.90;;;;;;5049191;28;20033;-62
2022/03/10 04:11:03;;;;;;;0.00;0.00;;;11.20;99.90;;;;;;5032033;28;20060;-62
2022/03/10 04:13:29;;;;;;;0.00;0.00;;;11.30;99.90;;;;;;5045853;28;20033;-62
2022/03/10 04:15:54;;;;;;;0.00;0.00;;;11.30;99.90;;;;;;5048080;28;20029;-62
2022/03/10 04:18:20;;;;;;;0.00;0.00;;;11.20;99.90;;;;;;5048736;28;20033;-61
2022/03/10 04:20:46;;;;;;;0.00;0.00;;;11.20;99.90;;;;;;5049450;28;20059;-62
2022/03/10 04:23:14;;;;;;;0.00;0.00;;;11.30;99.90;;;;;;5045002;28;20077;-61
2022/03/10 04:25:40;;;;;;;0.00;0.00;;;11.30;99.90;;;;;;5050375;28;20013;-62
2022/03/10 04:28:06;;;;;;;0.00;0.00;;;11.20;99.90;;;;;;5046754;28;20060;-65
2022/03/10 04:30:34;;;;;;;0.00;0.00;;;11.30;99.90;;;;;;5031240;28;20091;-63
2022/03/10 04:33:01;;;;;;;0.00;0.00;;;11.40;99.90;;;;;;5049200;28;20025;-61
2022/03/10 04:35:27;;;;;;;0.00;0.00;;;11.40;99.90;;;;;;5038556;28;20009;-62
2022/03/10 04:37:54;;;;;;;0.00;0.00;;;11.40;99.90;;;;;;5051111;28;20029;-62
2022/03/10 04:40:20;;;;;;;;;;;11.40;99.90;;;;;;5049825;28;20025;-61
2022/03/10 04:42:47;;;;;;;0.00;0.00;;;11.40;99.90;;;;;;5049892;28;19909;-62
2022/03/10 04:45:12;;;;;;;0.00;0.00;;;11.40;99.90;;;;;;5046612;28;20041;-64
2022/03/10 04:47:41;;;;;;;0.00;0.00;;;11.30;99.90;;;;;;5033115;28;20029;-61
2022/03/10 04:50:08;;;;;;;0.00;0.00;;;11.40;99.90;;;;;;5030288;28;20029;-62
2022/03/10 04:52:34;;;;;;;0.00;0.00;;;11.40;99.90;;;;;;5031941;28;20018;-62
2022/03/10 04:55:00;;;;;;;0.00;0.00;;;11.40;99.90;;;;;;5048679;28;20360;-61
2022/03/10 04:57:26;;;;;;;0.00;0.00;;;11.40;99.90;;;;;;5038692;28;20120;-62
2022/03/10 04:59:52;;;;;;;0.00;0.00;;;11.40;99.90;;;;;;5042643;28;20053;-61
2022/03/10 05:02:17;;;;;;;0.00;0.00;;;11.40;99.90;;;;;;5045438;28;20053;-62
2022/03/10 05:04:43;;;;;;;0.00;0.00;;;11.50;99.90;;;;;;5047589;28;20022;-61
2022/03/10 05:07:10;;;;;;;0.00;0.00;;;11.40;99.90;;;;;;5043469;28;20034;-62
2022/03/10 05:09:35;;;;;;;0.00;0.00;;;11.50;99.90;;;;;;5048706;28;20047;-62
2022/03/10 05:12:01;;;;;;;0.00;0.00;;;11.50;99.90;;;;;;5048230;28;20486;-61
2022/03/10 05:14:27;;;;;;;0.00;0.00;;;11.50;99.90;;;;;;5029583;28;20033;-61
2022/03/10 05:16:56;;;;;;;0.00;0.00;;;11.50;99.90;;;;;;5038412;28;20053;-62
2022/03/10 05:19:21;;;;;;;0.00;0.00;;;11.60;99.90;;;;;;5039911;28;20032;-62
2022/03/10 05:21:47;;;;;;;0.00;0.00;;;11.50;99.90;;;;;;5046606;28;20038;-62
2022/03/10 05:24:13;;;;;;;0.00;0.00;;;11.50;99.90;;;;;;5045455;28;20037;-62
2022/03/10 05:26:39;;;;;;;0.00;0.00;;;11.40;99.90;;;;;;5045667;28;20029;-63
2022/03/10 05:29:05;;;;;;;0.00;0.00;;;11.30;99.90;;;;;;5051855;28;20564;-62
2022/03/10 05:31:30;;;;;;;;;;;11.30;99.90;;;;;;5034965;28;20104;-62
2022/03/10 05:33:56;;;;;;;0.00;0.00;;;11.30;99.90;;;;;;5050975;28;19917;-63
2022/03/10 05:36:22;;;;;;;0.00;0.00;;;11.30;99.90;;;;;;5051323;28;20045;-62
2022/03/10 05:38:48;;;;;;;0.00;0.00;;;11.30;99.90;;;;;;5046381;28;20033;-61
2022/03/10 05:41:14;;;;;;;0.00;0.00;;;11.20;99.90;;;;;;5046680;28;20437;-62
2022/03/10 05:43:39;;;;;;;0.00;0.00;;;11.20;99.90;;;;;;5052561;28;20076;-62
2022/03/10 05:46:05;;;;;;;0.00;0.00;;;11.30;99.90;;;;;;5050747;28;20045;-61
2022/03/10 05:48:31;;;;;;;0.00;0.00;;;11.30;99.90;;;;;;5047496;28;20047;-61
2022/03/10 05:50:58;;;;;;;0.00;0.00;;;11.30;99.90;;;;;;5033207;28;20038;-61
2022/03/10 05:53:23;;;;;;;0.00;0.00;;;11.20;99.90;;;;;;5050959;28;20119;-62
2022/03/10 05:55:49;;;;;;;0.00;0.00;;;11.20;99.90;;;;;;5050269;28;20022;-61
2022/03/10 05:58:15;;;;;;;0.00;0.00;;;11.20;99.90;;;;;;5049837;28;20037;-62
2022/03/10 06:00:41;;;;;;;0.00;0.00;;;11.30;99.90;;;;;;5050306;28;20458;-61
2022/03/10 06:03:06;;;;;;;0.00;0.00;;;11.30;99.90;;;;;;5045578;28;20053;-62
2022/03/10 06:05:33;;;;;;;0.00;0.00;;;11.20;99.90;;;;;;5043862;28;20085;-63
2022/03/10 06:07:59;;;;;;;0.00;0.00;;;11.20;99.90;;;;;;5032305;28;20036;-63
2022/03/10 06:10:25;;;;;;;0.00;0.00;;;11.20;99.90;;;;;;5045582;28;20399;-62
2022/03/10 06:12:51;;;;;;;0.00;0.00;;;11.20;99.90;;;;;;5048011;28;20025;-61
2022/03/10 06:15:18;;;;;;;0.00;0.00;;;11.20;99.90;;;;;;5049063;28;20025;-62
2022/03/10 06:17:43;;;;;;;;;;;11.20;99.90;;;;;;5050517;28;20029;-62
2022/03/10 06:20:11;;;;;;;0.00;0.00;;;11.20;99.90;;;;;;5032399;28;20008;-63
2022/03/10 06:22:37;;;;;;;0.00;0.00;;;11.20;99.90;;;;;;5048925;28;20112;-62
2022/03/10 06:25:03;;;;;;;;;;;11.20;99.90;;;;;;5045727;28;20025;-62
2022/03/10 06:27:29;;;;;;;0.00;0.00;;;11.20;99.90;;;;;;5047358;28;19996;-62
2022/03/10 06:29:55;;;;;;;0.00;0.00;;;11.20;99.90;;;;;;5049353;28;20030;-62
2022/03/10 06:32:22;;;;;;;;;;;11.10;99.90;;;;;;5049756;28;20034;-62
2022/03/10 06:34:49;;;;;;;0.00;0.00;;;11.20;99.90;;;;;;5060830;28;19916;-61
2022/03/10 06:37:15;;;;;;;0.00;0.00;;;11.10;99.90;;;;;;5066123;28;20041;-63
2022/03/10 06:39:41;;;;;;;0.00;0.00;;;11.10;99.90;;;;;;5060645;28;20026;-63
2022/03/10 06:42:09;;;;;;;0.00;0.00;;;11.20;99.90;;;;;;5068506;28;20033;-62
2022/03/10 06:44:36;;;;;;;0.00;0.00;;;11.20;99.90;;;;;;5061974;28;20022;-61
2022/03/10 06:47:04;;;;;;;0.00;0.00;;;11.10;99.90;;;;;;5055731;28;20029;-63
2022/03/10 06:49:30;;;;;;;0.00;0.00;;;11.10;99.90;;;;;;5065919;28;20021;-62
2022/03/10 06:51:56;;;;;;;;;;;11.00;99.90;;;;;;5070804;28;20021;-62
2022/03/10 06:54:22;;;;;;;0.00;0.00;;;11.10;99.90;;;;;;5082522;28;19924;-62
2022/03/10 06:56:47;;;;;;;0.00;0.00;;;11.20;99.90;;;;;;5054132;28;20093;-61
2022/03/10 06:59:13;;;;;;;0.00;0.00;;;11.10;99.90;;;;;;5067869;28;20082;-61
2022/03/10 07:01:40;;;;;;;0.00;0.00;;;11.20;99.90;;;;;;5069295;28;20033;-61
2022/03/10 07:04:06;;;;;;;0.00;0.00;;;11.20;99.90;;;;;;5058980;28;20082;-62
2022/03/10 07:06:32;;;;;;;0.00;0.00;;;11.10;99.90;;;;;;5072464;28;20032;-62
2022/03/10 07:08:58;;;;;;;0.00;0.00;;;11.20;99.90;;;;;;5070792;28;20079;-62
2022/03/10 07:11:25;;;;;;;0.00;0.00;;;11.20;99.90;;;;;;5071702;28;20026;-63
2022/03/10 07:13:51;;;;;;;0.00;0.00;;;11.10;99.90;;;;;;5071464;28;20013;-62
2022/03/10 07:16:17;;;;;;;0.00;0.00;;;11.20;99.90;;;;;;5072545;28;20037;-63
2022/03/10 07:18:42;;;;;;;0.00;0.00;;;11.10;99.90;;;;;;5068432;28;20036;-63
2022/03/10 07:21:08;;;;;;;0.00;0.00;;;11.10;99.90;;;;;;5067990;28;20032;-62
2022/03/10 07:23:34;;;;;;;0.00;0.00;;;11.00;99.90;;;;;;5071519;28;20032;-63
2022/03/10 07:26:00;;;;;;;0.00;0.00;;;11.00;99.90;;;;;;5073307;28;20048;-62
2022/03/10 07:28:27;;;;;;;0.00;0.00;;;11.00;99.90;;;;;;5065199;28;20072;-63
2022/03/10 07:30:53;;;;;;;0.00;0.00;;;11.10;99.90;;;;;;5068750;28;20039;-63
2022/03/10 07:33:19;;;;;;;0.00;0.00;;;11.00;99.90;;;;;;5059479;28;20052;-62
2022/03/10 07:35:44;;;;;;;0.00;0.00;;;11.10;99.90;;;;;;5057381;28;20079;-62
2022/03/10 07:38:11;;;;;;;0.00;0.00;;;11.10;99.90;;;;;;5069681;28;20040;-62
2022/03/10 07:40:37;;;;;;;;;;;11.20;99.90;;;;;;5066562;28;20017;-63
2022/03/10 07:43:03;;;;;;;0.00;0.00;;;11.30;99.90;;;;;;5052809;28;20000;-63
2022/03/10 07:45:29;;;;;;;0.00;0.00;;;11.40;99.90;;;;;;5050879;28;20029;-62
2022/03/10 07:47:55;;;;;;;0.00;0.00;;;11.40;99.90;;;;;;5064783;28;20033;-62
2022/03/10 07:50:23;;;;;;;0.00;0.00;;;11.40;99.90;;;;;;5047550;28;20511;-62
2022/03/10 07:52:48;;;;;;;0.00;0.00;;;11.40;99.90;;;;;;5066479;28;20028;-63
2022/03/10 07:55:14;;;;;;;0.00;0.00;;;11.40;99.90;;;;;;5064843;28;20029;-62
2022/03/10 07:57:41;;;;;;;0.00;0.00;;;11.50;99.90;;;;;;5059630;28;20088;-62
2022/03/10 08:00:10;;;;;;;0.00;0.00;;;11.50;99.90;;;;;;5063782;28;20056;-62
2022/03/10 08:02:36;;;;;;;0.00;0.00;;;11.40;99.90;;;;;;5057243;28;20029;-63
2022/03/10 08:05:02;;;;;;;;;;;11.30;99.90;;;;;;5056990;28;20116;-62
2022/03/10 08:07:32;;;;;;;0.00;0.00;;;11.40;99.90;;;;;;5070172;28;19908;-63
2022/03/10 08:10:03;;;;;;;0.00;0.00;;;11.50;99.90;;;;;;5070034;28;20052;-62
2022/03/10 08:12:33;;;;;;;0.00;0.00;;;11.60;99.90;;;;;;5077300;28;20079;-62
2022/03/10 08:15:00;;;;;;;0.00;0.00;;;11.50;99.90;;;;;;5069434;28;20111;-65
2022/03/10 08:17:26;;;;;;;0.00;0.00;;;11.50;99.90;;;;;;5074436;28;20039;-61
2022/03/10 08:19:55;;;;;;;;;;;11.50;99.90;;;;;;5076495;28;20051;-62
2022/03/10 08:22:24;;;;;;;0.00;0.00;;;11.60;99.90;;;;;;5074710;28;19936;-62
2022/03/10 08:24:50;;;;;;;0.00;0.00;;;11.60;99.90;;;;;;5077073;28;20017;-63
2022/03/10 08:27:16;;;;;;;0.00;0.00;;;11.60;99.90;;;;;;5051114;28;20023;-63
2022/03/10 08:29:44;;;;;;;0.00;0.00;;;11.50;99.90;;;;;;5074999;28;20086;-64
2022/03/10 08:32:10;;;;;;;0.00;0.00;;;11.50;99.90;;;;;;5076506;28;20009;-62
2022/03/10 08:34:36;;;;;;;0.00;0.00;;;11.50;99.90;;;;;;5049165;28;20129;-62
2022/03/10 08:37:02;;;;;;;0.00;0.00;;;11.50;99.90;;;;;;5041548;28;20037;-62
2022/03/10 08:39:29;;;;;;;0.00;0.00;;;11.50;99.90;;;;;;5051333;28;20109;-62
2022/03/10 08:41:55;;;;;;;0.00;0.00;;;11.60;99.90;;;;;;5054562;28;20028;-63
2022/03/10 08:44:21;;;;;;;0.00;0.00;;;11.50;99.90;;;;;;5055860;28;20037;-62
2022/03/10 08:46:47;;;;;;;0.00;0.00;;;11.50;99.90;;;;;;5036883;28;20030;-62
2022/03/10 08:49:14;;;;;;;0.00;0.00;;;11.50;99.90;;;;;;5053173;28;20085;-63
2022/03/10 08:51:40;;;;;;;0.00;0.00;;;11.50;99.90;;;;;;5055016;28;20023;-62
2022/03/10 08:54:06;;;;;;;0.00;0.00;;;11.40;99.90;;;;;;5053867;28;20053;-63
2022/03/10 08:56:32;;;;;;;0.00;0.00;;;11.30;99.90;;;;;;5034121;28;20060;-62
2022/03/10 08:58:58;;;;;;;0.00;0.00;;;11.30;99.90;;;;;;5051599;28;20049;-64
2022/03/10 09:01:24;;;;;;;0.00;0.00;;;11.40;99.90;;;;;;5051668;28;20018;-62
2022/03/10 09:03:49;;;;;;;0.00;0.00;;;11.50;99.90;;;;;;5050143;28;20022;-63
2022/03/10 09:06:16;;;;;;;0.00;0.00;;;11.60;99.90;;;;;;5044455;28;20145;-62
2022/03/10 09:08:44;;;;;;;0.00;0.00;;;11.70;99.90;;;;;;5032281;28;20093;-61
2022/03/10 09:11:10;;;;;;;0.00;0.00;;;11.60;99.90;;;;;;5039861;28;20192;-62
2022/03/10 09:13:36;;;;;;;0.00;0.00;;;11.60;99.90;;;;;;5044126;28;20025;-61
2022/03/10 09:16:02;;;;;;;0.00;0.00;;;11.50;99.90;;;;;;5030531;28;20029;-63
2022/03/10 09:18:28;;;;;;;0.00;0.00;;;11.40;99.90;;;;;;5049326;28;20091;-62
2022/03/10 09:20:54;;;;;;;0.00;0.00;;;11.30;99.90;;;;;;5045014;28;20370;-62
2022/03/10 09:23:20;;;;;;;0.00;0.00;;;11.30;99.90;;;;;;5050131;28;20089;-62
2022/03/10 09:25:45;;;;;;;0.00;0.00;;;11.40;99.90;;;;;;5049789;28;20026;-61
2022/03/10 09:28:12;;;;;;;0.00;0.00;;;11.30;99.90;;;;;;5047174;28;20033;-63
2022/03/10 09:30:38;;;;;;;0.00;0.00;;;11.20;99.90;;;;;;5037075;28;20040;-61
2022/03/10 09:33:04;;;;;;;0.00;0.00;;;11.10;99.90;;;;;;5032644;28;20064;-61
2022/03/10 09:35:29;;;;;;;0.00;0.00;;;11.10;99.90;;;;;;5065374;28;20029;-61
2022/03/10 09:37:55;;;;;;;0.00;0.00;;;11.10;99.90;;;;;;5070680;28;20036;-62
2022/03/10 09:40:21;;;;;;;0.00;0.00;;;11.10;99.90;;;;;;5049345;28;20059;-61
2022/03/10 09:42:49;;;;;;;0.00;0.00;;;11.20;99.90;;;;;;5068418;28;20032;-62
2022/03/10 09:45:17;;;;;;;0.00;0.00;;;11.30;99.90;;;;;;5068335;28;20025;-62
2022/03/10 09:47:44;;;;;;;0.00;0.00;;;11.30;99.90;;;;;;5066586;28;20021;-62
2022/03/10 09:50:15;;;;;;;0.00;0.00;;;11.30;99.90;;;;;;5068478;28;20111;-61
2022/03/10 09:52:44;;;;;;;0.00;0.00;;;11.30;99.90;;;;;;5058951;28;20028;-62
2022/03/10 09:55:11;;;;;;;0.00;0.00;;;11.40;99.90;;;;;;5068564;28;20108;-62
2022/03/10 09:57:42;;;;;;;0.00;0.00;;;11.50;99.90;;;;;;5067876;28;20055;-62
2022/03/10 10:00:10;;;;;;;0.00;0.00;;;11.50;99.90;;;;;;5067261;28;20032;-63
2022/03/10 10:02:42;;;;;;;0.00;0.00;;;11.70;99.90;;;;;;5066663;28;20037;-62
2022/03/10 10:05:33;;;;;;;0.00;0.00;;;11.90;99.90;;;;;;5065396;28;20036;-62
2022/03/10 10:08:09;;;;;;;0.00;0.00;;;12.00;99.90;;;;;;5055870;28;20033;-61
2022/03/10 10:10:39;;;;;;;0.00;0.00;;;11.90;99.90;;;;;;5050267;28;20028;-63
2022/03/10 10:13:06;;;;;;;0.00;0.00;;;11.90;99.90;;;;;;5081426;28;20025;-62
2022/03/10 10:15:37;;;;;;;0.00;0.00;;;12.00;99.90;;;;;;5052533;28;20032;-62
2022/03/10 10:18:05;;;;;;;0.00;0.00;;;11.90;99.90;;;;;;5054337;28;20079;-61
2022/03/10 10:20:51;;;;;;;0.00;0.00;;;11.90;99.90;;;;;;5062812;28;20124;-62
2022/03/10 10:23:47;;;;;;;0.00;0.00;;;11.80;99.90;;;;;;5069876;28;20033;-62
2022/03/10 10:26:14;;;;;;;0.00;0.00;;;11.90;99.90;;;;;;5051698;28;20057;-62
2022/03/10 10:28:41;;;;;;;0.00;0.00;;;11.90;99.90;;;;;;5050461;28;20053;-64
2022/03/10 10:31:13;;;;;;;0.00;0.00;;;11.90;99.90;;;;;;5069087;28;20035;-61
2022/03/10 10:33:42;;;;;;;0.00;0.00;;;12.00;99.90;;;;;;5068430;28;20105;-62
2022/03/10 10:36:32;;;;;;;0.00;0.00;;;12.10;99.90;;;;;;5070669;28;20017;-63
2022/03/10 10:39:13;;;;;;;0.00;0.00;;;12.10;99.90;;;;;;5070133;28;20025;-62
2022/03/10 10:41:41;;;;;;;0.00;0.00;;;12.10;99.90;;;;;;5052483;28;20036;-62
2022/03/10 10:44:16;;;;;;;0.00;0.00;;;12.20;99.90;;;;;;5070152;28;20051;-62
2022/03/10 10:46:44;;;;;;;0.00;0.00;;;12.30;99.90;;;;;;5072619;28;20013;-63
2022/03/10 10:49:18;;;;;;;0.00;0.00;;;12.30;99.90;;;;;;5063559;28;20025;-62
2022/03/10 10:51:54;;;;;;;0.00;0.00;;;12.40;99.90;;;;;;5065662;28;20098;-62
2022/03/10 10:54:20;;;;;;;0.00;0.00;;;12.50;99.90;;;;;;5061413;28;20029;-63
2022/03/10 10:56:49;;;;;;;0.00;0.00;;;12.60;99.90;;;;;;5057448;28;20029;-62
2022/03/10 10:59:34;;;;;;;0.00;0.00;;;12.70;99.90;;;;;;5067046;28;20028;-62
2022/03/10 11:02:10;;;;;;;0.00;0.00;;;12.70;99.90;;;;;;5070751;28;20061;-62
2022/03/10 11:04:44;;;;;;;0.00;0.00;;;12.90;99.90;;;;;;5067360;28;20108;-63
2022/03/10 11:07:11;;;;;;;0.00;0.00;;;13.10;99.90;;;;;;5052607;28;20040;-62
2022/03/10 11:09:38;;;;;;;0.00;0.00;;;13.00;99.90;;;;;;5064255;28;20025;-62
2022/03/10 11:12:05;;;;;;;0.00;0.00;;;12.90;99.90;;;;;;5071894;28;20028;-62
2022/03/10 11:14:30;;;;;;;;;;;12.80;99.90;;;;;;5064453;28;20033;-61
2022/03/10 11:16:58;;;;;;;0.00;0.00;;;12.80;99.90;;;;;;5064810;28;19921;-62
2022/03/10 11:19:25;;;;;;;0.00;0.00;;;12.70;99.90;;;;;;5052919;28;20025;-63
2022/03/10 11:22:39;;;;;;;0.00;0.00;;;12.80;99.90;;;;;;5059139;28;20033;-61
2022/03/10 11:25:24;;;;;;;0.00;0.00;;;12.70;99.90;;;;;;5048226;28;20158;-62
2022/03/10 11:27:55;;;;;;;0.00;0.00;;;12.60;99.90;;;;;;5039354;28;20028;-62
2022/03/10 11:30:34;;;;;;;0.00;0.00;;;12.60;99.90;;;;;;5065736;28;20021;-62
2022/03/10 11:33:05;;;;;;;0.00;0.00;;;12.90;99.90;;;;;;5042165;28;20035;-62
2022/03/10 11:35:42;;;;;;;0.00;0.00;;;13.10;99.90;;;;;;5043298;28;20040;-61
2022/03/10 11:38:09;;;;;;;0.00;0.00;;;13.00;99.90;;;;;;5039588;28;20097;-63
2022/03/10 11:40:45;;;;;;;0.00;0.00;;;13.10;99.90;;;;;;5046016;28;20059;-62
2022/03/10 11:43:18;;;;;;;0.00;0.00;;;13.10;99.90;;;;;;5049273;28;20049;-63
2022/03/10 11:45:44;;;;;;;0.00;0.00;;;13.00;99.90;;;;;;5041611;28;20029;-62
2022/03/10 11:48:30;;;;;;;0.00;0.00;;;12.90;99.90;;;;;;5017303;28;20030;-61
2022/03/10 11:50:56;;;;;;;0.00;0.00;;;12.90;99.90;;;;;;5045567;28;20045;-61
2022/03/10 11:53:21;;;;;;;0.00;0.00;;;12.90;99.90;;;;;;5048709;28;20116;-62
2022/03/10 11:55:52;;;;;;;0.00;0.00;;;13.20;99.90;;;;;;5048831;28;20032;-62
2022/03/10 11:58:38;;;;;;;0.00;0.00;;;13.50;99.90;;;;;;5039448;28;20037;-62
2022/03/10 12:01:05;;;;;;;0.00;0.00;;;13.60;99.90;;;;;;5042486;28;20041;-63
2022/03/10 12:03:34;;;;;;;0.00;0.00;;;13.80;99.90;;;;;;5043968;28;20085;-62
2022/03/10 12:06:04;;;;;;;0.00;0.00;;;13.60;99.90;;;;;;5043344;28;20064;-62
2022/03/10 12:08:37;;;;;;;0.00;0.00;;;13.50;99.90;;;;;;5045780;28;20025;-63
2022/03/10 12:11:05;;;;;;;0.00;0.00;;;13.50;99.90;;;;;;5048933;28;20034;-61
2022/03/10 12:13:37;;;;;;;0.00;0.00;;;13.60;99.90;;;;;;5043426;28;20029;-62
2022/03/10 12:16:07;;;;;;;0.00;0.00;;;13.40;99.90;;;;;;5039231;28;20027;-62
2022/03/10 12:18:39;;;;;;;0.00;0.00;;;13.20;99.90;;;;;;5046083;28;20025;-62
2022/03/10 12:21:24;;;;;;;0.00;0.00;;;13.10;99.90;;;;;;5042108;28;20026;-65
2022/03/10 12:23:55;;;;;;;0.00;0.00;;;13.20;99.90;;;;;;5045730;28;20037;-62
2022/03/10 12:26:25;;;;;;;0.00;0.00;;;13.40;99.90;;;;;;5034142;28;20045;-62
2022/03/10 12:28:54;;;;;;;0.00;0.00;;;13.70;99.90;;;;;;5040534;28;20037;-62
2022/03/10 12:31:23;;;;;;;0.00;0.00;;;13.90;99.90;;;;;;5047729;28;20037;-62
2022/03/10 12:33:52;;;;;;;0.00;0.00;;;13.90;99.90;;;;;;5038349;28;20072;-62
2022/03/10 12:36:33;;;;;;;0.00;0.00;;;13.70;99.90;;;;;;5061343;28;20075;-62
2022/03/10 12:39:13;;;;;;;0.00;0.00;;;13.70;99.90;;;;;;5080866;28;20037;-62
2022/03/10 12:41:42;;;;;;;0.00;0.00;;;13.60;99.90;;;;;;5066051;28;20036;-62
2022/03/10 12:44:10;;;;;;;0.00;0.00;;;13.60;99.90;;;;;;5066147;28;20111;-62
2022/03/10 12:46:38;;;;;;;0.00;0.00;;;13.70;99.90;;;;;;5062351;28;20033;-64
2022/03/10 12:49:20;;;;;;;0.00;0.00;;;13.80;99.90;;;;;;5059415;28;20030;-66
2022/03/10 12:51:45;;;;;;;0.00;0.00;;;13.90;99.90;;;;;;5063088;28;20033;-62
2022/03/10 12:54:11;;;;;;;0.00;0.00;;;13.70;99.90;;;;;;5063793;28;20028;-62
2022/03/10 12:56:49;;;;;;;0.00;0.00;;;13.70;99.90;;;;;;5065313;28;20147;-67
2022/03/10 12:59:30;;;;;;;0.00;0.00;;;13.80;99.90;;;;;;5060814;28;20064;-61